Time;durP1;ratioP1;P1;durP2;ratioP2;P2;SDS_P1;SDS_P2;PMS_P1;PMS_P2;Temp;Humidity;BMP_temperature;BMP_pressure;BME280_temperature;BME280_humidity;BME280_pressure;Samples;Min_cycle;Max_cycle;Signal;HPM_P1;HPM_P2
2022/05/25 00:01:05;;;;;;;3.70;2.33;;;14.50;99.90;;;;;;5048599;28;20204;-36
2022/05/25 00:03:33;;;;;;;3.83;2.27;;;14.50;99.90;;;;;;5044740;28;20232;-36
2022/05/25 00:06:06;;;;;;;3.47;2.17;;;14.50;99.90;;;;;;5034526;28;20212;-35
2022/05/25 00:08:40;;;;;;;2.90;2.20;;;14.40;99.90;;;;;;5029523;28;20216;-36
2022/05/25 00:11:09;;;;;;;3.92;2.58;;;14.40;99.90;;;;;;5046844;28;20206;-36
2022/05/25 00:13:36;;;;;;;6.73;2.57;;;14.40;99.90;;;;;;5047794;28;20559;-36
2022/05/25 00:16:06;;;;;;;3.10;2.50;;;14.40;99.90;;;;;;5047950;28;20238;-36
2022/05/25 00:18:34;;;;;;;3.28;2.53;;;14.40;99.90;;;;;;5048234;28;20231;-36
2022/05/25 00:21:01;;;;;;;5.60;2.53;;;14.40;99.90;;;;;;5047356;28;20303;-36
2022/05/25 00:23:33;;;;;;;3.90;2.77;;;14.40;99.90;;;;;;5048029;28;20204;-35
2022/05/25 00:26:03;;;;;;;5.37;2.90;;;14.30;99.90;;;;;;5047257;28;20742;-36
2022/05/25 00:28:32;;;;;;;5.43;2.50;;;14.30;99.90;;;;;;5046416;28;20257;-35
2022/05/25 00:31:02;;;;;;;5.90;3.15;;;14.30;99.90;;;;;;5048162;28;20299;-35
2022/05/25 00:33:30;;;;;;;5.40;2.90;;;14.30;99.90;;;;;;5047648;28;20216;-35
2022/05/25 00:35:57;;;;;;;6.37;3.30;;;14.30;99.90;;;;;;5057815;28;20204;-36
2022/05/25 00:38:24;;;;;;;6.60;3.73;;;14.20;99.90;;;;;;5061658;28;20211;-36
2022/05/25 00:40:52;;;;;;;4.30;2.90;;;14.20;99.90;;;;;;5065226;28;20670;-35
2022/05/25 00:43:19;;;;;;;5.77;3.10;;;14.20;99.90;;;;;;5027556;28;20223;-36
2022/05/25 00:45:57;;;;;;;4.60;3.30;;;14.20;99.90;;;;;;5039464;28;20228;-35
2022/05/25 00:48:38;;;;;;;3.90;3.23;;;14.20;99.90;;;;;;5047582;28;20202;-35
2022/05/25 00:51:12;;;;;;;4.00;2.83;;;14.20;99.90;;;;;;5047699;28;20220;-35
2022/05/25 00:53:47;;;;;;;6.53;3.50;;;14.10;99.90;;;;;;5048212;28;20196;-35
2022/05/25 00:56:21;;;;;;;3.40;2.77;;;14.10;99.90;;;;;;5046887;28;20247;-35
2022/05/25 00:59:08;;;;;;;5.47;3.37;;;14.10;99.90;;;;;;5046927;28;20807;-36
2022/05/25 01:01:36;;;;;;;4.23;3.07;;;14.10;99.90;;;;;;5051499;28;20211;-35
2022/05/25 01:04:04;;;;;;;5.47;2.90;;;14.10;99.90;;;;;;5051257;28;20236;-35
2022/05/25 01:06:49;;;;;;;4.50;2.97;;;14.00;99.90;;;;;;5049956;28;20679;-36
2022/05/25 01:09:43;;;;;;;6.53;3.37;;;14.00;99.90;;;;;;5042977;28;20430;-36
2022/05/25 01:12:22;;;;;;;5.53;3.25;;;14.00;99.90;;;;;;5049341;28;20224;-35
2022/05/25 01:15:14;;;;;;;6.00;3.30;;;13.90;99.90;;;;;;5049326;28;20580;-36
2022/05/25 01:17:53;;;;;;;6.17;3.13;;;13.90;99.90;;;;;;5050847;28;20219;-36
2022/05/25 01:20:46;;;;;;;7.65;4.28;;;13.90;99.90;;;;;;5051711;28;20678;-36
2022/05/25 01:23:15;;;;;;;4.80;2.90;;;13.80;99.90;;;;;;5051277;28;20220;-38
2022/05/25 01:26:20;;;;;;;5.77;3.60;;;13.70;99.90;;;;;;5051263;28;20222;-36
2022/05/25 01:29:04;;;;;;;5.10;3.40;;;13.70;99.90;;;;;;5050136;28;20235;-36
2022/05/25 01:31:49;;;;;;;4.83;3.03;;;13.70;99.90;;;;;;5050924;28;20288;-36
2022/05/25 01:34:33;;;;;;;4.77;2.73;;;13.70;99.90;;;;;;5030993;28;20248;-35
2022/05/25 01:37:10;;;;;;;4.77;2.87;;;13.70;99.90;;;;;;5067972;28;20579;-35
2022/05/25 01:39:51;;;;;;;5.00;2.83;;;13.70;99.90;;;;;;5070907;28;20223;-36
2022/05/25 01:42:29;;;;;;;4.33;2.73;;;13.60;99.90;;;;;;5070909;28;20207;-36
2022/05/25 01:45:02;;;;;;;5.47;2.70;;;13.60;99.90;;;;;;5071037;28;20254;-36
2022/05/25 01:47:33;;;;;;;4.13;2.60;;;13.60;99.90;;;;;;5031128;28;20609;-36
2022/05/25 01:50:06;;;;;;;3.30;2.70;;;13.60;99.90;;;;;;5041413;28;20306;-36
2022/05/25 01:52:40;;;;;;;4.67;2.40;;;13.60;99.90;;;;;;5050829;28;20203;-36
2022/05/25 01:55:36;;;;;;;3.27;2.77;;;13.60;99.90;;;;;;5050572;28;20211;-36
2022/05/25 01:58:09;;;;;;;5.03;2.90;;;13.60;99.90;;;;;;5050509;28;20219;-36
2022/05/25 02:00:41;;;;;;;4.87;2.80;;;13.50;99.90;;;;;;5050668;28;21106;-35
2022/05/25 02:06:17;;;;;;;3.77;2.50;;;13.50;99.90;;;;;;5050022;28;20269;-35
2022/05/25 02:09:08;;;;;;;3.85;2.60;;;13.50;99.90;;;;;;5041986;28;20270;-35
2022/05/25 02:11:38;;;;;;;4.77;2.50;;;13.40;99.90;;;;;;5049885;28;20200;-36
2022/05/25 02:14:36;;;;;;;3.60;2.43;;;13.40;99.90;;;;;;5050396;28;20196;-36
2022/05/25 02:17:25;;;;;;;3.03;2.50;;;13.30;99.90;;;;;;5050110;28;20196;-35
2022/05/25 02:20:14;;;;;;;4.43;2.30;;;13.30;99.90;;;;;;5044408;28;20213;-35
2022/05/25 02:22:44;;;;;;;3.33;2.30;;;13.30;99.90;;;;;;5030561;28;20205;-35
2022/05/25 02:25:20;;;;;;;4.47;2.40;;;13.20;99.90;;;;;;5030388;28;20231;-35
2022/05/25 02:28:15;;;;;;;4.93;2.50;;;13.20;99.90;;;;;;5029741;28;20208;-35
2022/05/25 02:30:51;;;;;;;3.53;2.50;;;13.20;99.90;;;;;;5028405;28;20676;-36
2022/05/25 02:33:30;;;;;;;3.43;2.10;;;13.20;99.90;;;;;;5030047;28;20211;-35
2022/05/25 02:36:00;;;;;;;4.30;2.30;;;13.20;99.90;;;;;;5030276;28;20248;-35
2022/05/25 02:38:30;;;;;;;5.17;2.33;;;13.20;99.90;;;;;;5047244;28;20592;-36
2022/05/25 02:41:09;;;;;;;3.60;2.40;;;13.10;99.90;;;;;;5047530;28;20212;-35
2022/05/25 02:43:39;;;;;;;5.73;2.30;;;13.20;99.90;;;;;;5029765;28;20662;-36
2022/05/25 02:46:11;;;;;;;4.97;2.30;;;13.10;99.90;;;;;;5029897;28;20302;-35
2022/05/25 02:48:38;;;;;;;4.43;2.57;;;13.10;99.90;;;;;;5028758;28;20193;-36
2022/05/25 02:51:08;;;;;;;4.27;2.40;;;13.10;99.90;;;;;;5029720;28;20213;-35
2022/05/25 02:53:43;;;;;;;3.50;2.47;;;13.10;99.90;;;;;;5030479;28;20220;-36
2022/05/25 02:56:13;;;;;;;4.37;2.50;;;13.10;99.90;;;;;;5029735;28;20208;-35
2022/05/25 02:58:40;;;;;;;4.20;2.23;;;13.00;99.90;;;;;;5045364;28;20223;-36
2022/05/25 03:01:07;;;;;;;4.10;2.33;;;13.00;99.90;;;;;;5049165;28;20216;-35
2022/05/25 03:03:36;;;;;;;8.87;2.77;;;13.00;99.90;;;;;;5049174;28;20655;-35
2022/05/25 03:10:39;;;;;;;4.10;2.37;;;13.00;99.90;;;;;;5034471;28;20224;-36
2022/05/25 03:13:09;;;;;;;2.70;2.20;;;12.90;99.90;;;;;;5028956;28;20738;-35
2022/05/25 03:15:37;;;;;;;3.57;2.30;;;12.90;99.90;;;;;;5030900;28;20232;-35
2022/05/25 03:18:05;;;;;;;3.80;2.40;;;12.90;99.90;;;;;;5035109;28;20286;-35
2022/05/25 03:20:34;;;;;;;4.23;2.60;;;12.90;99.90;;;;;;5047846;28;20219;-35
2022/05/25 03:23:02;;;;;;;2.57;2.37;;;12.90;99.90;;;;;;5048067;28;20228;-35
2022/05/25 03:25:29;;;;;;;3.27;2.27;;;12.90;99.90;;;;;;5049071;28;20212;-35
2022/05/25 03:28:02;;;;;;;6.63;2.97;;;12.90;99.90;;;;;;5030165;28;20558;-36
2022/05/25 03:30:31;;;;;;;7.40;2.60;;;12.90;99.90;;;;;;5029164;28;20219;-35
2022/05/25 03:32:58;;;;;;;6.17;2.70;;;12.90;99.90;;;;;;5046986;28;20204;-35
2022/05/25 03:35:26;;;;;;;3.77;3.03;;;12.80;99.90;;;;;;5049132;28;20212;-35
2022/05/25 03:37:58;;;;;;;4.10;2.80;;;12.90;99.90;;;;;;5063655;28;20586;-35
2022/05/25 03:40:26;;;;;;;4.03;3.13;;;12.90;99.90;;;;;;5067581;28;20228;-35
2022/05/25 03:42:53;;;;;;;7.07;3.20;;;12.80;99.90;;;;;;5068300;28;20210;-35
2022/05/25 03:45:20;;;;;;;4.57;3.23;;;12.80;99.90;;;;;;5048251;28;20229;-35
2022/05/25 03:47:50;;;;;;;5.43;2.87;;;12.80;99.90;;;;;;5029171;28;20222;-35
2022/05/25 03:50:20;;;;;;;6.60;3.23;;;12.80;99.90;;;;;;5048788;28;20188;-35
2022/05/25 03:52:47;;;;;;;3.57;2.87;;;12.80;99.90;;;;;;5048305;28;20287;-35
2022/05/25 03:55:15;;;;;;;4.87;2.80;;;12.80;99.90;;;;;;5047269;28;20204;-35
2022/05/25 03:57:44;;;;;;;4.17;3.03;;;12.80;99.90;;;;;;5047970;28;20218;-36
2022/05/25 04:00:12;;;;;;;5.40;3.07;;;12.80;99.90;;;;;;5048664;28;20246;-35
2022/05/25 04:02:41;;;;;;;3.60;2.80;;;12.80;99.90;;;;;;5047097;28;20262;-35
2022/05/25 04:05:09;;;;;;;6.33;3.10;;;12.80;99.90;;;;;;5047514;28;20243;-35
2022/05/25 04:07:40;;;;;;;5.23;3.33;;;12.80;99.90;;;;;;5047955;28;20219;-35
2022/05/25 04:10:11;;;;;;;4.20;3.10;;;12.70;99.90;;;;;;5041506;28;20295;-35
2022/05/25 04:12:41;;;;;;;5.40;3.03;;;12.80;99.90;;;;;;5048064;28;20196;-36
2022/05/25 04:15:13;;;;;;;6.17;3.57;;;12.70;99.90;;;;;;5048549;28;20238;-33
2022/05/25 04:17:43;;;;;;;5.37;2.80;;;12.80;99.90;;;;;;5048361;28;20251;-34
2022/05/25 04:20:12;;;;;;;5.73;3.30;;;12.70;99.90;;;;;;5047195;28;20227;-33
2022/05/25 04:22:39;;;;;;;4.10;3.10;;;12.80;99.90;;;;;;5039859;28;20417;-33
2022/05/25 04:25:10;;;;;;;4.50;2.53;;;12.70;99.90;;;;;;5040958;28;20216;-33
2022/05/25 04:27:39;;;;;;;6.57;3.27;;;12.80;99.90;;;;;;5045981;28;20204;-34
2022/05/25 04:30:13;;;;;;;5.30;3.10;;;12.80;99.90;;;;;;5048155;28;20230;-34
2022/05/25 04:32:43;;;;;;;6.13;2.70;;;12.80;99.90;;;;;;5047667;28;20196;-34
2022/05/25 04:35:12;;;;;;;4.37;2.60;;;12.80;99.90;;;;;;5048066;28;20302;-34
2022/05/25 04:37:57;;;;;;;6.67;3.37;;;12.80;99.90;;;;;;5031190;28;20746;-33
2022/05/25 04:40:36;;;;;;;3.60;2.67;;;12.80;99.90;;;;;;5028645;28;20208;-34
2022/05/25 04:43:09;;;;;;;5.50;2.60;;;12.80;99.90;;;;;;5027234;28;20223;-34
2022/05/25 04:45:42;;;;;;;8.77;3.10;;;12.80;99.90;;;;;;5027800;28;20229;-33
2022/05/25 04:48:10;;;;;;;5.47;2.93;;;12.90;99.90;;;;;;5027471;28;20580;-35
2022/05/25 04:50:40;;;;;;;5.43;3.30;;;12.90;99.90;;;;;;5027806;28;20215;-35
2022/05/25 04:53:14;;;;;;;6.63;2.70;;;12.90;99.90;;;;;;5026859;28;20209;-35
2022/05/25 04:58:34;;;;;;;4.80;3.20;;;12.90;99.90;;;;;;5027361;28;20225;-35
2022/05/25 05:01:06;;;;;;;5.30;3.27;;;12.90;99.90;;;;;;5028322;28;20196;-35
2022/05/25 05:03:33;;;;;;;5.37;3.23;;;12.90;99.90;;;;;;5027614;28;20256;-35
2022/05/25 05:06:06;;;;;;;7.03;3.67;;;12.90;99.90;;;;;;5027594;28;20220;-35
2022/05/25 05:08:34;;;;;;;7.03;3.40;;;13.00;99.90;;;;;;5027696;28;20295;-35
2022/05/25 05:11:14;;;;;;;7.03;3.47;;;13.00;99.90;;;;;;5046740;28;20204;-35
2022/05/25 05:13:45;;;;;;;6.20;3.70;;;13.10;99.90;;;;;;5038897;28;20723;-35
2022/05/25 05:16:18;;;;;;;8.02;3.60;;;13.10;99.90;;;;;;5026940;28;20251;-35
2022/05/25 05:18:48;;;;;;;8.40;4.13;;;13.10;99.90;;;;;;5026150;28;20216;-35
2022/05/25 05:21:15;;;;;;;8.40;3.97;;;13.10;99.90;;;;;;5025947;28;20201;-35
2022/05/25 05:23:44;;;;;;;5.93;3.60;;;13.20;99.90;;;;;;5027336;28;20221;-35
2022/05/25 05:26:13;;;;;;;9.17;4.10;;;13.20;99.90;;;;;;5026447;28;20638;-35
2022/05/25 05:28:45;;;;;;;6.57;4.00;;;13.20;99.90;;;;;;5026637;28;20237;-35
2022/05/25 05:31:14;;;;;;;10.27;4.18;;;13.30;99.90;;;;;;5039077;28;20613;-35
2022/05/25 05:33:41;;;;;;;10.05;4.15;;;13.30;99.90;;;;;;5047145;28;20583;-35
2022/05/25 05:36:16;;;;;;;10.63;4.90;;;13.30;99.90;;;;;;5047344;28;20261;-35
2022/05/25 05:39:02;;;;;;;10.13;4.20;;;13.40;99.90;;;;;;5061999;28;20207;-35
2022/05/25 05:41:48;;;;;;;10.00;4.10;;;13.40;99.90;;;;;;5066994;28;20220;-35
2022/05/25 05:44:22;;;;;;;6.67;3.47;;;13.40;99.90;;;;;;5047222;28;20234;-35
2022/05/25 05:46:54;;;;;;;6.60;3.70;;;13.40;99.90;;;;;;5031445;28;20498;-35
2022/05/25 05:49:27;;;;;;;6.07;3.80;;;13.40;99.90;;;;;;5049237;28;20218;-35
2022/05/25 05:51:57;;;;;;;6.47;3.60;;;13.50;99.90;;;;;;5050638;28;20692;-33
2022/05/25 05:54:24;;;;;;;6.73;3.60;;;13.50;99.90;;;;;;5050834;28;20680;-34
2022/05/25 05:56:51;;;;;;;7.07;3.80;;;13.60;99.90;;;;;;5050648;28;20315;-34
2022/05/25 05:59:19;;;;;;;7.63;3.43;;;13.60;99.90;;;;;;5050763;28;20683;-34
2022/05/25 06:01:48;;;;;;;7.43;3.37;;;13.60;99.90;;;;;;5064092;28;20208;-34
2022/05/25 06:04:18;;;;;;;6.20;3.17;;;13.70;99.90;;;;;;5049527;28;20259;-34
2022/05/25 06:06:49;;;;;;;7.70;3.33;;;13.70;99.90;;;;;;5048806;28;20232;-33
2022/05/25 06:09:17;;;;;;;8.87;4.10;;;13.80;99.90;;;;;;5036733;28;20775;-33
2022/05/25 06:11:44;;;;;;;6.72;3.15;;;13.80;99.90;;;;;;5044933;28;20676;-34
2022/05/25 06:14:11;;;;;;;6.80;3.17;;;13.90;99.90;;;;;;5029741;28;20205;-34
2022/05/25 06:19:29;;;;;;;9.80;3.57;;;14.00;99.90;;;;;;5030642;28;20254;-33
2022/05/25 06:22:05;;;;;;;7.97;3.20;;;14.00;99.90;;;;;;5040960;28;20227;-34
2022/05/25 06:24:41;;;;;;;5.53;2.90;;;14.10;99.90;;;;;;5050005;28;20234;-34
2022/05/25 06:27:11;;;;;;;6.03;2.57;;;14.10;99.90;;;;;;5049793;28;20270;-34
2022/05/25 06:29:40;;;;;;;5.50;2.43;;;14.20;99.90;;;;;;5049568;28;20210;-34
2022/05/25 06:32:12;;;;;;;5.30;2.50;;;14.20;99.90;;;;;;5050224;28;20505;-34
2022/05/25 06:34:40;;;;;;;5.83;2.63;;;14.30;99.90;;;;;;5049193;28;20655;-34
2022/05/25 06:37:14;;;;;;;5.30;2.33;;;14.40;99.90;;;;;;5049668;28;20216;-33
2022/05/25 06:39:47;;;;;;;7.50;2.50;;;14.40;99.90;;;;;;5041390;28;20234;-33
2022/05/25 06:42:14;;;;;;;7.18;2.15;;;14.50;99.90;;;;;;5049483;28;20318;-34
2022/05/25 06:44:44;;;;;;;7.17;2.10;;;14.50;99.90;;;;;;5047789;28;20208;-33
2022/05/25 06:47:16;;;;;;;5.53;1.80;;;14.60;99.90;;;;;;5047726;28;20576;-34
2022/05/25 06:49:46;;;;;;;7.03;1.95;;;14.60;99.90;;;;;;5047901;28;20646;-34
2022/05/25 06:52:16;;;;;;;4.43;1.90;;;14.70;99.90;;;;;;5039954;28;20213;-34
2022/05/25 06:54:43;;;;;;;4.50;1.80;;;14.70;99.90;;;;;;5029629;28;20235;-34
2022/05/25 06:57:13;;;;;;;2.43;1.67;;;14.80;99.90;;;;;;5029726;28;20364;-34
2022/05/25 06:59:40;;;;;;;6.88;2.20;;;14.80;99.90;;;;;;5027799;28;20205;-34
2022/05/25 07:02:10;;;;;;;7.15;1.95;;;14.90;99.90;;;;;;5029364;28;20217;-34
2022/05/25 07:04:40;;;;;;;3.90;1.58;;;14.90;99.90;;;;;;5047804;28;20330;-34
2022/05/25 07:07:07;;;;;;;4.70;1.55;;;15.00;99.90;;;;;;5049407;28;20253;-34
2022/05/25 07:09:39;;;;;;;4.43;1.77;;;15.00;99.90;;;;;;5042079;28;20660;-34
2022/05/25 07:12:08;;;;;;;11.93;2.87;;;15.10;99.90;;;;;;5046035;28;20206;-33
2022/05/25 07:14:40;;;;;;;10.70;2.00;;;15.10;99.90;;;;;;5028850;28;20275;-34
2022/05/25 07:17:07;;;;;;;6.37;1.70;;;15.20;99.90;;;;;;5028734;28;20290;-34
2022/05/25 07:19:37;;;;;;;5.37;1.53;;;15.20;99.90;;;;;;5029310;28;20219;-33
2022/05/25 07:22:10;;;;;;;7.17;1.40;;;15.30;99.90;;;;;;5029106;28;20362;-33
2022/05/25 07:24:45;;;;;;;3.42;1.20;;;15.40;99.90;;;;;;5029259;28;20200;-34
2022/05/25 07:27:13;;;;;;;5.80;1.63;;;15.40;99.90;;;;;;5029580;28;20244;-34
2022/05/25 07:29:41;;;;;;;4.47;1.48;;;15.50;99.90;;;;;;5036203;28;20299;-34
2022/05/25 07:32:11;;;;;;;3.78;1.60;;;15.50;99.90;;;;;;5048491;28;20219;-33
2022/05/25 07:34:47;;;;;;;8.00;1.77;;;15.50;99.90;;;;;;5047353;28;20291;-34
2022/05/25 07:37:21;;;;;;;30.02;4.00;;;15.60;99.90;;;;;;5048620;28;20196;-34
2022/05/25 07:40:04;;;;;;;9.67;1.90;;;15.70;99.90;;;;;;5067990;28;20731;-34
2022/05/25 07:42:32;;;;;;;11.90;2.57;;;15.80;99.90;;;;;;5059433;28;20207;-33
2022/05/25 07:45:01;;;;;;;6.88;1.83;;;15.80;99.90;;;;;;5027439;28;20217;-34
2022/05/25 07:47:31;;;;;;;7.13;2.40;;;15.80;99.90;;;;;;5042778;28;20264;-33
2022/05/25 07:50:01;;;;;;;10.53;2.90;;;15.90;99.90;;;;;;5048323;28;20200;-34
2022/05/25 07:52:36;;;;;;;9.80;1.97;;;16.00;99.90;;;;;;5048041;28;20231;-33
2022/05/25 07:55:05;;;;;;;4.45;1.27;;;16.00;99.90;;;;;;5048580;28;20265;-34
2022/05/25 07:57:34;;;;;;;3.45;0.95;;;16.10;99.90;;;;;;5046656;28;20679;-33
2022/05/25 08:00:03;;;;;;;5.47;1.40;;;16.10;99.90;;;;;;5040935;28;20231;-34
2022/05/25 08:05:43;;;;;;;2.93;1.10;;;16.10;99.90;;;;;;5028279;28;20290;-34
2022/05/25 08:08:14;;;;;;;4.93;1.00;;;16.20;99.90;;;;;;5027762;28;20745;-33
2022/05/25 08:10:44;;;;;;;2.58;0.80;;;16.20;99.90;;;;;;5037791;28;20219;-34
2022/05/25 08:13:16;;;;;;;4.38;1.10;;;16.20;99.90;;;;;;5048011;28;20214;-34
2022/05/25 08:15:47;;;;;;;2.85;0.90;;;16.30;99.90;;;;;;5046811;28;20203;-34
2022/05/25 08:18:19;;;;;;;2.25;0.95;;;16.40;99.90;;;;;;5046809;28;20212;-34
2022/05/25 08:20:48;;;;;;;2.72;0.98;;;16.40;99.90;;;;;;5039033;28;20224;-34
2022/05/25 08:23:18;;;;;;;1.50;0.70;;;16.50;99.90;;;;;;5028173;28;20205;-33
2022/05/25 08:25:46;;;;;;;2.53;0.80;;;16.50;99.90;;;;;;5026235;28;20656;-33
2022/05/25 08:28:14;;;;;;;5.03;1.10;;;16.60;99.90;;;;;;5026579;28;20216;-34
2022/05/25 08:30:43;;;;;;;3.00;0.75;;;16.60;99.90;;;;;;5028464;28;20223;-33
2022/05/25 08:33:17;;;;;;;2.97;0.87;;;16.60;99.90;;;;;;5028297;28;20470;-34
2022/05/25 08:35:45;;;;;;;9.27;1.23;;;16.60;99.90;;;;;;5027975;28;20220;-34
2022/05/25 08:38:12;;;;;;;7.33;1.27;;;16.70;99.90;;;;;;5034681;28;20212;-34
2022/05/25 08:40:46;;;;;;;3.03;1.10;;;16.70;99.90;;;;;;5047764;28;20208;-34
2022/05/25 08:43:19;;;;;;;4.75;1.17;;;16.70;99.90;;;;;;5047551;28;20619;-33
2022/05/25 08:46:07;;;;;;;5.22;1.05;;;16.80;99.90;;;;;;5047747;28;20216;-34
2022/05/25 08:48:35;;;;;;;2.15;0.70;;;16.80;99.90;;;;;;5047502;28;20266;-33
2022/05/25 08:51:06;;;;;;;15.88;2.63;;;16.90;99.90;;;;;;5046946;28;20210;-33
2022/05/25 08:53:35;;;;;;;26.90;3.78;;;16.90;99.90;;;;;;5047847;28;20748;-34
2022/05/25 08:56:14;;;;;;;8.52;1.50;;;17.00;99.90;;;;;;5028284;28;20212;-33
2022/05/25 08:59:05;;;;;;;3.53;0.90;;;17.00;99.90;;;;;;5045972;28;20206;-33
2022/05/25 09:01:42;;;;;;;8.23;1.40;;;17.10;99.90;;;;;;5046938;28;20216;-34
2022/05/25 09:04:29;;;;;;;4.07;0.90;;;17.20;99.90;;;;;;5031129;28;20240;-33
2022/05/25 09:07:31;;;;;;;12.68;2.10;;;17.30;99.90;;;;;;5027409;28;20630;-33
2022/05/25 09:10:01;;;;;;;5.68;1.40;;;17.40;99.90;;;;;;5035743;28;20706;-33
2022/05/25 09:12:54;;;;;;;5.57;0.93;;;17.50;99.90;;;;;;5027735;28;20236;-34
2022/05/25 09:15:30;;;;;;;3.38;0.90;;;17.60;99.90;;;;;;5026941;28;20579;-34
2022/05/25 09:18:09;;;;;;;3.25;0.70;;;17.70;99.90;;;;;;5026976;28;20637;-34
2022/05/25 09:20:52;;;;;;;3.92;0.90;;;17.70;99.90;;;;;;5029840;28;20234;-34
2022/05/25 09:23:21;;;;;;;1.60;0.50;;;17.80;99.90;;;;;;5031766;28;20216;-33
2022/05/25 09:25:56;;;;;;;7.40;1.30;;;17.90;99.90;;;;;;5032138;28;20297;-33
2022/05/25 09:28:30;;;;;;;2.55;0.60;;;17.90;99.90;;;;;;5034812;28;20227;-33
2022/05/25 09:31:02;;;;;;;4.30;0.80;;;17.90;99.90;;;;;;5051133;28;20531;-34
2022/05/25 09:33:46;;;;;;;4.53;0.77;;;18.00;99.90;;;;;;5051012;28;20642;-34
2022/05/25 09:36:22;;;;;;;4.18;0.60;;;18.10;99.90;;;;;;5049583;28;20242;-33
2022/05/25 09:39:21;;;;;;;7.95;1.00;;;18.10;99.90;;;;;;5052713;28;20205;-33
2022/05/25 09:41:54;;;;;;;2.33;0.70;;;18.10;99.90;;;;;;5030186;28;20609;-34
2022/05/25 09:44:22;;;;;;;2.42;0.70;;;18.20;99.90;;;;;;5030876;28;20631;-34
2022/05/25 09:47:14;;;;;;;2.40;1.10;;;18.20;99.90;;;;;;5046153;28;20224;-34
2022/05/25 09:49:47;;;;;;;4.05;0.90;;;18.30;99.90;;;;;;5050750;28;20205;-34
2022/05/25 09:52:23;;;;;;;2.45;1.00;;;18.30;99.90;;;;;;5050655;28;20216;-34
2022/05/25 09:55:04;;;;;;;1.70;0.70;;;18.40;99.90;;;;;;5051112;28;20208;-33
2022/05/25 09:57:54;;;;;;;1.17;0.70;;;18.40;99.90;;;;;;5048506;28;20196;-33
2022/05/25 10:00:38;;;;;;;2.38;0.60;;;18.50;99.90;;;;;;5050010;28;20208;-34
2022/05/25 10:03:10;;;;;;;2.00;0.50;;;18.50;99.90;;;;;;5044003;28;20227;-34
2022/05/25 10:05:56;;;;;;;1.58;0.57;;;18.50;99.90;;;;;;5050441;28;20204;-33
2022/05/25 10:08:39;;;;;;;1.88;0.70;;;18.50;99.90;;;;;;5050419;28;20232;-33
2022/05/25 10:11:31;;;;;;;2.97;0.80;;;18.50;99.90;;;;;;5030261;28;20213;-34
2022/05/25 10:14:35;;;;;;;6.32;1.08;;;18.60;99.90;;;;;;5029941;28;20200;-34
2022/05/25 10:17:08;;;;;;;2.58;0.93;;;18.60;99.90;;;;;;5031517;28;20213;-33
2022/05/25 10:19:54;;;;;;;2.95;0.70;;;18.70;99.90;;;;;;5037390;28;20244;-33
2022/05/25 10:22:37;;;;;;;1.10;0.63;;;18.70;99.90;;;;;;5032095;28;20666;-34
2022/05/25 10:25:20;;;;;;;2.05;0.50;;;18.80;99.90;;;;;;5050265;28;20586;-33
2022/05/25 10:27:48;;;;;;;7.45;1.00;;;18.80;99.90;;;;;;5049194;28;20239;-33
2022/05/25 10:39:27;;;;;;;5.03;0.90;;;19.10;99.90;;;;;;5056519;28;20224;-34
2022/05/25 10:41:58;;;;;;;6.50;1.00;;;19.20;99.90;;;;;;5069438;28;20206;-34
2022/05/25 10:44:31;;;;;;;2.55;0.70;;;19.20;99.90;;;;;;5068055;28;20219;-34
2022/05/25 10:47:00;;;;;;;4.28;0.90;;;19.30;99.90;;;;;;5069596;28;20332;-34
2022/05/25 10:49:41;;;;;;;6.20;0.88;;;19.30;99.90;;;;;;5063099;28;20219;-34
2022/05/25 10:52:23;;;;;;;3.50;1.05;;;19.40;99.40;;;;;;5029490;28;20200;-34
2022/05/25 10:54:52;;;;;;;3.22;1.10;;;19.40;99.30;;;;;;5045445;28;20212;-34
2022/05/25 10:57:56;;;;;;;3.05;0.93;;;19.50;99.50;;;;;;5049168;28;20717;-34
2022/05/25 11:00:46;;;;;;;3.33;0.68;;;19.50;99.50;;;;;;5054461;28;20212;-33
2022/05/25 11:03:25;;;;;;;2.42;0.70;;;19.50;99.00;;;;;;5035182;28;20212;-34
2022/05/25 11:05:57;;;;;;;2.38;0.60;;;19.50;98.40;;;;;;5029761;28;20994;-34
2022/05/25 11:08:46;;;;;;;3.90;0.75;;;19.50;99.30;;;;;;5029237;28;20654;-33
2022/05/25 11:11:22;;;;;;;4.05;0.88;;;19.50;99.30;;;;;;5047814;28;20557;-34
2022/05/25 11:14:01;;;;;;;5.20;0.60;;;19.50;98.80;;;;;;5048879;28;20261;-34
2022/05/25 11:17:12;;;;;;;4.85;1.08;;;19.50;99.20;;;;;;5048415;28;20216;-34
2022/05/25 11:19:49;;;;;;;3.60;1.10;;;19.50;99.80;;;;;;5029691;28;20223;-33
2022/05/25 11:22:20;;;;;;;3.35;0.80;;;19.50;99.10;;;;;;5046331;28;20681;-35
2022/05/25 11:24:59;;;;;;;3.33;0.85;;;19.60;98.90;;;;;;5025697;28;20216;-33
2022/05/25 11:27:39;;;;;;;2.78;0.70;;;19.60;99.30;;;;;;5028993;28;20256;-33
2022/05/25 11:30:28;;;;;;;1.63;0.68;;;19.60;98.70;;;;;;5028977;28;20693;-34
2022/05/25 11:33:06;;;;;;;8.23;1.20;;;19.60;98.60;;;;;;5026787;28;20205;-34
2022/05/25 11:35:37;;;;;;;5.15;0.80;;;19.70;98.50;;;;;;5028698;28;20215;-33
2022/05/25 11:38:21;;;;;;;4.47;0.95;;;19.70;98.50;;;;;;5036000;28;20201;-34
2022/05/25 11:41:13;;;;;;;4.18;0.70;;;19.70;99.00;;;;;;5056183;28;20209;-33
2022/05/25 11:43:55;;;;;;;8.07;1.25;;;19.80;99.30;;;;;;5027103;28;20217;-33
2022/05/25 11:46:42;;;;;;;3.85;0.80;;;19.80;98.00;;;;;;5028445;28;20200;-34
2022/05/25 11:50:14;;;;;;;2.72;0.70;;;19.80;99.10;;;;;;5026408;28;20663;-33
2022/05/25 11:53:18;;;;;;;5.38;1.02;;;19.90;99.30;;;;;;5065157;28;20207;-34
2022/05/25 11:56:12;;;;;;;4.63;1.20;;;19.90;99.40;;;;;;5028579;28;20205;-34
2022/05/25 11:59:13;;;;;;;6.53;0.73;;;20.00;99.60;;;;;;5028715;28;20205;-33
2022/05/25 12:01:46;;;;;;;3.35;0.85;;;20.10;99.20;;;;;;5036107;28;20208;-34
2022/05/25 12:04:19;;;;;;;2.38;0.75;;;20.10;99.70;;;;;;5048180;28;20236;-33
2022/05/25 12:07:18;;;;;;;5.25;1.00;;;20.20;98.90;;;;;;5047857;28;20201;-33
2022/05/25 12:09:51;;;;;;;3.67;0.75;;;20.20;99.10;;;;;;5046191;28;20266;-34
2022/05/25 12:12:40;;;;;;;3.95;0.73;;;20.20;98.60;;;;;;5047787;28;20219;-34
2022/05/25 12:15:26;;;;;;;2.28;0.70;;;20.30;99.00;;;;;;5046490;28;20643;-34
2022/05/25 12:18:11;;;;;;;7.75;0.65;;;20.30;99.00;;;;;;5046308;28;20677;-33
2022/05/25 12:21:08;;;;;;;9.73;1.35;;;20.30;98.20;;;;;;5032121;28;20204;-32
2022/05/25 12:23:40;;;;;;;5.05;1.58;;;20.40;98.80;;;;;;5039416;28;20204;-34
2022/05/25 12:26:17;;;;;;;6.00;1.00;;;20.40;98.90;;;;;;5047430;28;20306;-33
2022/05/25 12:28:46;;;;;;;3.60;0.80;;;20.40;98.20;;;;;;5046869;28;20224;-33
2022/05/25 12:31:18;;;;;;;3.22;0.70;;;20.40;97.80;;;;;;5046479;28;20282;-33
2022/05/25 12:33:47;;;;;;;4.90;1.20;;;20.40;98.30;;;;;;5026922;28;20228;-34
2022/05/25 12:36:16;;;;;;;6.13;0.80;;;20.40;97.80;;;;;;5040180;28;20220;-33
2022/05/25 12:38:43;;;;;;;3.95;0.82;;;20.40;97.70;;;;;;5057993;28;20199;-33
2022/05/25 12:41:30;;;;;;;2.55;0.70;;;20.30;98.20;;;;;;5056901;28;20391;-34
2022/05/25 12:49:59;;;;;;;1.17;0.65;;;20.30;99.00;;;;;;5046572;28;20200;-33
2022/05/25 12:52:26;;;;;;;1.73;0.70;;;20.30;98.50;;;;;;5041699;28;20252;-33
2022/05/25 12:55:13;;;;;;;2.13;0.70;;;20.30;98.70;;;;;;5027481;28;20218;-34
2022/05/25 12:57:51;;;;;;;3.50;0.82;;;20.40;99.00;;;;;;5026002;28;20208;-34
2022/05/25 13:00:33;;;;;;;2.55;0.60;;;20.40;98.90;;;;;;5027215;28;20212;-34
2022/05/25 13:03:14;;;;;;;5.68;0.80;;;20.50;99.10;;;;;;5026899;28;20319;-33
2022/05/25 13:05:47;;;;;;;3.72;0.70;;;20.50;98.00;;;;;;5028307;28;20205;-34
2022/05/25 13:08:51;;;;;;;1.55;0.50;;;20.60;98.30;;;;;;5027399;28;20235;-33
2022/05/25 13:11:32;;;;;;;2.70;0.70;;;20.60;98.00;;;;;;5027137;28;20255;-33
2022/05/25 13:14:16;;;;;;;2.58;0.68;;;20.50;97.90;;;;;;5027213;28;20346;-33
2022/05/25 13:16:47;;;;;;;3.92;0.93;;;20.50;97.70;;;;;;5027551;28;20201;-34
2022/05/25 13:19:33;;;;;;;3.22;1.00;;;20.50;97.50;;;;;;5027541;28;20211;-33
2022/05/25 13:22:03;;;;;;;8.90;1.10;;;20.50;97.10;;;;;;5027202;28;20208;-34
2022/05/25 13:24:45;;;;;;;6.22;0.73;;;20.50;97.60;;;;;;5027874;28;20212;-33
2022/05/25 13:27:24;;;;;;;2.60;0.80;;;20.50;96.90;;;;;;5039744;28;20218;-34
2022/05/25 13:30:13;;;;;;;3.10;0.50;;;20.50;97.70;;;;;;5046780;28;20222;-34
2022/05/25 13:32:52;;;;;;;2.10;0.68;;;20.50;97.80;;;;;;5046869;28;20562;-33
2022/05/25 13:35:23;;;;;;;1.15;0.50;;;20.60;97.30;;;;;;5047259;28;20243;-34
2022/05/25 13:37:59;;;;;;;1.48;0.52;;;20.60;97.00;;;;;;5050017;28;20199;-34
2022/05/25 13:40:45;;;;;;;2.90;1.15;;;20.60;96.80;;;;;;5054460;28;20295;-34
2022/05/25 13:43:18;;;;;;;2.15;0.60;;;20.70;97.80;;;;;;5046595;28;20290;-33
2022/05/25 13:45:47;;;;;;;2.63;0.65;;;20.70;97.70;;;;;;5046734;28;20691;-33
2022/05/25 13:48:22;;;;;;;2.38;0.70;;;20.70;97.60;;;;;;5046510;28;20248;-33
2022/05/25 13:50:55;;;;;;;8.90;0.93;;;20.60;96.40;;;;;;5047499;28;20230;-33
2022/05/25 13:53:37;;;;;;;2.60;0.50;;;20.70;96.60;;;;;;5047055;28;20189;-34
2022/05/25 13:56:11;;;;;;;2.83;0.63;;;20.70;96.90;;;;;;5045402;28;20321;-34
2022/05/25 13:58:45;;;;;;;2.22;0.70;;;20.70;97.20;;;;;;5046820;28;20701;-34